Leonia, New Jersey
Current Conditions -  °F | °C
As of 9:51 PM on Sunday 21 Dec 2014 (Local Time) from KTEB Reporting Station
Overcast Overcast  
Wind Chill: 30°   Ceiling: 1800
Heat Index: 35°   Visibility: 9mi
Dew Point: 28°   Wind: 6mph
Humidity: 76%   Direction: 360°N
Pressure: 30.33"   Gusts: NA
Location:  40.86°N, 73.99°W
Report Text: KTEB 220251Z 36005KT 9SM OVC018 02/M02 A3033 RMK AO2 SNB34E51 SLP270 P0000 60000 T00171022 58002
Loading
Personal Weather Stations






























Interactive Weather Map New forecast layout! Learn more

10-Day Weather Forecast

Advertisements
Track Severe Weather on mobile